Kansas City, Missouri
Traffic Map
Current Weather Conditions
Kansas City, Missouri
Clear
Clear
21°
Feels Like: 21°
Wind Chill: 21° Ceiling: Unl
Heat Index: 21° Visibility: 10mi
Dew Point: 11° Wind: 5mph
Humidity: 53% Direction: ° ()
Pressure: 30.15in Gusts: 0mph
Raw Report DataKMKC 161854Z VRB04KT 10SM CLR 21/11 A3015 RMK AO2 SLP206 T02060106
Traffic Incident Summary
Active as of:
Severity:
Category:
InformationThere was an issue retrieving the traffic information for this location. Please try a different location or try again shortly.
Advertisements
Track Severe Weather on mobile